Terminal Aerodrome Forecast
Issued by NWS

Home | Current Version | Previous Version | Text Only | Print | Product List | Glossary On
Versions: 1 2 3 4 5 6 7 8 9 10 11 12 13 14 15 16 17 18 19 20 21 22 23 24 25 26
106
FTUS41 KRNK 201726
TAFBCB
TAF
KBCB 201726Z 2018/2118 VRB03KT P6SM SCT045
     FM202000 15004KT P6SM BKN050
     FM210800 00000KT 4SM BR SCT008
     FM211000 00000KT 1SM BR BKN005
     FM211300 25004KT P6SM FEW060=

USA.gov is the U.S. government's official web portal to all federal, state and local government web resources and services.